Time;durP1;ratioP1;P1;durP2;ratioP2;P2;SDS_P1;SDS_P2;PMS_P1;PMS_P2;Temp;Humidity;BMP_temperature;BMP_pressure;BME280_temperature;BME280_humidity;BME280_pressure;Samples;Min_cycle;Max_cycle;Signal;HPM_P1;HPM_P2
2022/12/15 00:40:25;;;;;;;;;;;-5.50;99.90;;;;;;5054958;28;19951;-82
2022/12/15 00:42:50;;;;;;;;;;;-5.50;99.90;;;;;;5042014;28;19921;-81
2022/12/15 00:45:16;;;;;;;;;;;-5.50;99.90;;;;;;5037459;28;21376;-83
2022/12/15 00:47:42;;;;;;;;;;;-5.50;99.90;;;;;;5061202;28;19961;-82
2022/12/15 01:20:18;;;;;;;;;;;-5.70;99.90;;;;;;5049454;28;19927;-83
2022/12/15 01:22:52;;;;;;;;;;;-5.70;99.90;;;;;;5043723;28;19975;-82
2022/12/15 01:25:19;;;;;;;;;;;-5.70;99.90;;;;;;5063178;28;19929;-82
2022/12/15 01:27:44;;;;;;;;;;;-4.20;99.90;;;;;;5052907;28;19995;-83
2022/12/15 01:30:12;;;;;;;;;;;-5.70;99.90;;;;;;5049062;28;19932;-82
2022/12/15 01:32:37;;;;;;;;;;;-5.70;99.90;;;;;;5050999;28;19921;-82
2022/12/15 01:35:04;;;;;;;;;;;-5.70;99.90;;;;;;5026312;28;20275;-82
2022/12/15 01:37:29;;;;;;;;;;;-5.70;99.90;;;;;;5056424;28;20011;-82
2022/12/15 01:42:40;;;;;;;;;;;-5.40;99.90;;;;;;5043743;28;20040;-83
2022/12/15 01:45:38;;;;;;;;;;;-5.70;99.90;;;;;;5043199;28;19932;-83
2022/12/15 01:48:08;;;;;;;;;;;-5.60;99.90;;;;;;5032267;28;19926;-82
2022/12/15 01:50:38;;;;;;;;;;;-5.60;99.90;;;;;;5059376;28;19920;-82
2022/12/15 01:53:04;;;;;;;;;;;-5.70;99.90;;;;;;5062158;28;20579;-83
2022/12/15 01:55:31;;;;;;;;;;;-5.60;99.90;;;;;;5062926;28;19924;-83
2022/12/15 01:57:59;;;;;;;;;;;-5.60;99.90;;;;;;5060960;28;20010;-83
2022/12/15 02:00:25;;;;;;;;;;;-5.70;99.90;;;;;;5043068;28;19927;-83
2022/12/15 02:02:50;;;;;;;;;;;-5.60;99.90;;;;;;5045548;28;20382;-82
2022/12/15 02:05:16;;;;;;;;;;;-4.40;99.90;;;;;;5054873;28;19946;-83
2022/12/15 02:07:42;;;;;;;;;;;-5.60;99.90;;;;;;5061002;28;20004;-83
2022/12/15 02:10:09;;;;;;;;;;;-5.60;99.90;;;;;;5060072;28;19920;-83
2022/12/15 02:12:46;;;;;;;;;;;-5.60;99.90;;;;;;5050959;28;19931;-82
2022/12/15 02:15:31;;;;;;;;;;;-5.60;99.90;;;;;;5061189;28;19920;-82
2022/12/15 02:18:09;;;;;;;;;;;-5.60;99.90;;;;;;5058747;28;19979;-82
2022/12/15 02:20:34;;;;;;;;;;;-5.60;99.90;;;;;;5061849;28;19920;-83
2022/12/15 02:23:19;;;;;;;;;;;-5.60;99.90;;;;;;5050119;28;20007;-83
2022/12/15 02:26:03;;;;;;;;;;;-5.60;99.90;;;;;;5054537;28;19944;-83
2022/12/15 02:28:44;;;;;;;;;;;-5.60;99.90;;;;;;5062054;28;19940;-83
2022/12/15 02:34:04;;;;;;;;;;;-5.60;99.90;;;;;;5057397;28;20341;-83
2022/12/15 02:36:41;;;;;;;;;;;-4.30;99.90;;;;;;5060362;28;19928;-83
2022/12/15 02:39:10;;;;;;;;;;;-5.60;99.90;;;;;;5040160;28;20003;-82
2022/12/15 02:41:37;;;;;;;;;;;-5.60;99.90;;;;;;5052837;28;19946;-83
2022/12/15 02:44:08;;;;;;;;;;;-5.60;99.90;;;;;;5053729;28;19920;-83
2022/12/15 02:46:36;;;;;;;;;;;-5.60;99.90;;;;;;5048744;28;19927;-82
2022/12/15 02:49:15;;;;;;;;;;;-5.60;99.90;;;;;;5038837;28;19936;-83
2022/12/15 02:52:03;;;;;;;;;;;-5.50;99.90;;;;;;5053011;28;19959;-82
2022/12/15 02:54:45;;;;;;;;;;;-5.50;99.90;;;;;;5052754;28;19928;-82
2022/12/15 02:57:43;;;;;;;;;;;-5.50;99.90;;;;;;5041634;28;20282;-82
2022/12/15 03:00:09;;;;;;;;;;;-5.50;99.90;;;;;;5010207;28;19940;-83
2022/12/15 03:02:37;;;;;;;;;;;-5.50;99.90;;;;;;5044165;28;19924;-83
2022/12/15 03:05:03;;;;;;;;;;;-5.50;99.90;;;;;;5064401;28;19928;-83
2022/12/15 03:07:29;;;;;;;;;;;-5.50;99.90;;;;;;5043573;28;19921;-83
2022/12/15 03:09:55;;;;;;;;;;;-5.50;99.90;;;;;;5058954;28;19925;-83
2022/12/15 03:12:21;;;;;;;;;;;-5.50;99.90;;;;;;5061521;28;19921;-83
2022/12/15 03:14:46;;;;;;;;;;;-5.60;99.90;;;;;;5045383;28;19980;-83
2022/12/15 03:17:12;;;;;;;;;;;-5.60;99.90;;;;;;5058054;28;19928;-82
2022/12/15 03:19:37;;;;;;;;;;;-5.60;99.90;;;;;;5054029;28;19932;-83
2022/12/15 03:22:03;;;;;;;;;;;-5.60;99.90;;;;;;5047100;28;19929;-82
2022/12/15 03:24:28;;;;;;;;;;;-5.60;99.90;;;;;;5031845;28;19977;-83
2022/12/15 03:26:54;;;;;;;;;;;-5.60;99.90;;;;;;5061252;28;19928;-82
2022/12/15 03:29:20;;;;;;;;;;;-4.80;99.90;;;;;;5044197;28;20460;-81
2022/12/15 03:31:45;;;;;;;;;;;-5.50;99.90;;;;;;5030332;28;20008;-83
2022/12/15 03:34:11;;;;;;;;;;;-5.60;99.90;;;;;;5045245;28;19929;-83
2022/12/15 03:36:37;;;;;;;;;;;-4.80;99.90;;;;;;5047170;28;19928;-83
2022/12/15 03:39:03;;;;;;;;;;;-5.50;99.90;;;;;;5061732;28;19933;-83
2022/12/15 03:41:28;;;;;;;;;;;-5.50;99.90;;;;;;5050267;28;19928;-82
2022/12/15 03:43:54;;;;;;;;;;;-3.90;99.90;;;;;;5048920;28;20298;-82
2022/12/15 03:46:19;;;;;;;;;;;-5.50;99.90;;;;;;5044992;28;20110;-81
2022/12/15 03:48:45;;;;;;;;;;;-5.50;99.90;;;;;;5051551;28;19929;-83
2022/12/15 03:51:10;;;;;;;;;;;-5.50;99.90;;;;;;5036904;28;19920;-83
2022/12/15 03:53:36;;;;;;;;;;;-5.50;99.90;;;;;;5031691;28;19927;-83
2022/12/15 03:56:01;;;;;;;;;;;-5.50;99.90;;;;;;5061707;28;19920;-82
2022/12/15 03:58:27;;;;;;;;;;;-5.50;99.90;;;;;;5039873;28;19929;-83
2022/12/15 04:00:53;;;;;;;;;;;-5.50;99.90;;;;;;5058758;28;19947;-83
2022/12/15 04:03:18;;;;;;;;;;;-5.50;99.90;;;;;;5041662;28;19925;-82
2022/12/15 04:05:44;;;;;;;;;;;-5.50;99.90;;;;;;5061227;28;20443;-83
2022/12/15 04:08:10;;;;;;;;;;;-5.50;99.90;;;;;;5045525;28;19920;-82
2022/12/15 04:10:35;;;;;;;;;;;-5.40;99.90;;;;;;5057674;28;20430;-83
2022/12/15 04:13:03;;;;;;;;;;;-5.40;99.90;;;;;;5042112;28;19928;-83
2022/12/15 04:15:28;;;;;;;;;;;-5.40;99.90;;;;;;5042466;28;19992;-83
2022/12/15 04:17:54;;;;;;;;;;;-5.40;99.90;;;;;;5054216;28;19925;-82
2022/12/15 04:20:20;;;;;;;;;;;-5.40;99.90;;;;;;5042870;28;19976;-83
2022/12/15 04:22:46;;;;;;;;;;;-5.30;99.90;;;;;;5048333;28;19960;-83
2022/12/15 05:33:54;;;;;;;;;;;-5.30;99.90;;;;;;5060868;28;19959;-81
2022/12/15 05:36:20;;;;;;;;;;;-5.20;99.90;;;;;;5066302;28;20301;-83
2022/12/15 05:38:49;;;;;;;;;;;-5.20;99.90;;;;;;5050164;28;20299;-82
2022/12/15 05:41:16;;;;;;;;;;;-5.20;99.90;;;;;;5063539;28;20379;-82
2022/12/15 05:43:41;;;;;;;;;;;-5.20;99.90;;;;;;5050831;28;20132;-83
2022/12/15 05:46:07;;;;;;;;;;;-5.30;99.90;;;;;;5045851;28;19927;-82
2022/12/15 05:48:32;;;;;;;;;;;-5.30;99.90;;;;;;5063747;28;19932;-82
2022/12/15 05:51:01;;;;;;;;;;;-3.70;99.90;;;;;;5031608;28;19920;-83
2022/12/15 05:53:27;;;;;;;;;;;-5.20;99.90;;;;;;5060331;28;19972;-82
2022/12/15 05:55:59;;;;;;;;;;;-5.30;99.90;;;;;;5067734;28;19920;-83
2022/12/15 05:58:24;;;;;;;;;;;-5.20;99.90;;;;;;5062192;28;19931;-82
2022/12/15 06:00:50;;;;;;;;;;;-5.20;99.90;;;;;;5050321;28;19920;-82
2022/12/15 06:03:15;;;;;;;;;;;-5.20;99.90;;;;;;5041971;28;19928;-82
2022/12/15 06:05:41;;;;;;;;;;;-5.10;99.90;;;;;;5058019;28;19980;-83
2022/12/15 06:08:06;;;;;;;;;;;-5.10;99.90;;;;;;5043032;28;19932;-83
2022/12/15 06:10:32;;;;;;;;;;;-5.00;99.90;;;;;;5056188;28;19925;-82
2022/12/15 06:12:57;;;;;;;;;;;-5.10;99.90;;;;;;5039993;28;20332;-82
2022/12/15 06:15:23;;;;;;;;;;;-5.10;99.90;;;;;;5059404;28;19920;-83
2022/12/15 06:17:49;;;;;;;;;;;-5.10;99.90;;;;;;5057809;28;19929;-82
2022/12/15 06:20:14;;;;;;;;;;;-5.10;99.90;;;;;;5023327;28;19956;-82
2022/12/15 06:22:40;;;;;;;;;;;-5.10;99.90;;;;;;5056946;28;19987;-82
2022/12/15 06:25:06;;;;;;;;;;;-5.10;99.90;;;;;;5040495;28;19924;-82
2022/12/15 06:27:33;;;;;;;;;;;-5.00;99.90;;;;;;5060866;28;19965;-83
2022/12/15 06:30:00;;;;;;;;;;;-5.00;99.90;;;;;;5040775;28;20023;-82
2022/12/15 06:32:25;;;;;;;;;;;-5.00;99.90;;;;;;5055859;28;19920;-82
2022/12/15 06:34:51;;;;;;;;;;;-5.00;99.90;;;;;;5039101;28;20063;-82
2022/12/15 06:37:16;;;;;;;;;;;-4.90;99.90;;;;;;5050349;28;19982;-83
2022/12/15 06:39:42;;;;;;;;;;;-4.90;99.90;;;;;;5026468;28;20330;-82
2022/12/15 06:42:08;;;;;;;;;;;-4.80;99.90;;;;;;5040768;28;19964;-82
2022/12/15 06:44:33;;;;;;;;;;;-4.70;99.90;;;;;;5062654;28;19928;-84
2022/12/15 06:46:59;;;;;;;;;;;-3.30;99.90;;;;;;5049320;28;19929;-84
2022/12/15 06:49:24;;;;;;;;;;;-4.70;99.90;;;;;;5042231;28;19920;-85
2022/12/15 06:51:50;;;;;;;;;;;-4.70;99.90;;;;;;5067825;28;19979;-85
2022/12/15 06:54:15;;;;;;;;;;;-4.70;99.90;;;;;;5044924;28;20582;-84
2022/12/15 06:56:41;;;;;;;;;;;-4.70;99.90;;;;;;5040826;28;20336;-83
2022/12/15 06:59:07;;;;;;;;;;;-4.70;99.90;;;;;;5034608;28;19932;-84
2022/12/15 07:01:33;;;;;;;;;;;-4.60;99.90;;;;;;5042400;28;20217;-84
2022/12/15 07:04:00;;;;;;;;;;;-4.40;99.90;;;;;;5047229;28;19928;-85
2022/12/15 07:06:25;;;;;;;;;;;-4.70;99.90;;;;;;5050432;28;19927;-87
2022/12/15 07:08:52;;;;;;;;;;;-4.70;99.90;;;;;;5043273;28;19972;-85
2022/12/15 07:11:19;;;;;;;;;;;-4.70;99.90;;;;;;5047565;28;20361;-86
2022/12/15 07:13:47;;;;;;;;;;;-4.70;99.90;;;;;;5045299;28;19936;-85
2022/12/15 07:16:13;;;;;;;;;;;-4.60;99.90;;;;;;5057072;28;19921;-86
2022/12/15 07:18:39;;;;;;;;;;;-4.60;99.90;;;;;;5046335;28;20404;-86
2022/12/15 07:21:06;;;;;;;;;;;-4.60;99.90;;;;;;5066772;28;20251;-87
2022/12/15 07:23:32;;;;;;;;;;;-4.50;99.90;;;;;;5046331;28;19920;-86
2022/12/15 07:26:01;;;;;;;;;;;-4.50;99.90;;;;;;5043898;28;20011;-86
2022/12/15 07:28:26;;;;;;;;;;;-4.40;99.90;;;;;;5057203;28;19925;-86
2022/12/15 07:30:52;;;;;;;;;;;-4.40;99.90;;;;;;5048729;28;20341;-86
2022/12/15 07:33:17;;;;;;;;;;;-4.40;99.90;;;;;;5049898;28;19939;-86
2022/12/15 07:35:51;;;;;;;;;;;-4.30;99.90;;;;;;5040519;28;19954;-86
2022/12/15 07:38:16;;;;;;;;;;;-4.20;99.90;;;;;;5037738;28;19960;-84
2022/12/15 07:40:42;;;;;;;;;;;-4.10;99.90;;;;;;5030921;28;19931;-86
2022/12/15 07:43:07;;;;;;;;;;;-3.70;99.90;;;;;;5037771;28;19967;-88
2022/12/15 07:45:33;;;;;;;;;;;-3.90;99.90;;;;;;5038111;28;19920;-88
2022/12/15 07:47:59;;;;;;;;;;;-3.80;99.90;;;;;;5047619;28;19925;-89
2022/12/15 07:50:24;;;;;;;;;;;-3.70;99.90;;;;;;5061130;28;19929;-84
2022/12/15 07:52:50;;;;;;;;;;;-3.60;99.90;;;;;;5042054;28;19931;-84
2022/12/15 07:55:15;;;;;;;;;;;-3.60;99.90;;;;;;5032062;28;19920;-84
2022/12/15 07:57:41;;;;;;;;;;;-3.50;99.90;;;;;;5050826;28;20022;-85
2022/12/15 08:00:09;;;;;;;;;;;-3.50;99.90;;;;;;5053315;28;19921;-85
2022/12/15 08:02:34;;;;;;;;;;;-3.40;99.90;;;;;;5052481;28;19924;-85
2022/12/15 08:05:00;;;;;;;;;;;-3.30;99.90;;;;;;5068737;28;19921;-83
2022/12/15 08:07:26;;;;;;;;;;;-3.40;99.90;;;;;;5043513;28;19921;-83
2022/12/15 08:09:52;;;;;;;;;;;-3.30;99.90;;;;;;5056042;28;19966;-83
2022/12/15 08:12:18;;;;;;;;;;;-3.20;99.90;;;;;;5051009;28;19921;-83
2022/12/15 08:14:43;;;;;;;;;;;-2.30;99.90;;;;;;5049563;28;19951;-83
2022/12/15 08:17:09;;;;;;;;;;;-3.20;99.90;;;;;;5034721;28;19925;-84
2022/12/15 08:19:35;;;;;;;;;;;-3.30;99.90;;;;;;5049225;28;20365;-84
2022/12/15 08:22:01;;;;;;;;;;;-3.40;99.90;;;;;;5070014;28;19921;-83
2022/12/15 08:24:26;;;;;;;;;;;-3.40;99.90;;;;;;5051669;28;19943;-83
2022/12/15 08:26:52;;;;;;;;;;;-2.20;99.90;;;;;;5055223;28;19987;-83
2022/12/15 08:29:17;;;;;;;;;;;-3.40;99.90;;;;;;5068955;28;20495;-83
2022/12/15 08:31:43;;;;;;;;;;;-3.40;99.90;;;;;;5067082;28;20378;-83
2022/12/15 08:34:08;;;;;;;;;;;-3.40;99.90;;;;;;5057335;28;19920;-83
2022/12/15 08:36:34;;;;;;;;;;;-3.40;99.90;;;;;;5037097;28;19964;-83
2022/12/15 08:39:00;;;;;;;;;;;-3.50;99.90;;;;;;5064848;28;20024;-84
2022/12/15 08:41:27;;;;;;;;;;;-3.50;99.90;;;;;;5070698;28;20040;-85
2022/12/15 08:43:53;;;;;;;;;;;-3.50;99.90;;;;;;5028590;28;20163;-84
2022/12/15 08:46:21;;;;;;;;;;;-3.50;99.90;;;;;;5064001;28;19929;-83
2022/12/15 08:48:47;;;;;;;;;;;-3.40;99.90;;;;;;5064196;28;19920;-83
2022/12/15 08:51:12;;;;;;;;;;;-2.60;99.90;;;;;;5065162;28;19920;-83
2022/12/15 08:53:38;;;;;;;;;;;-3.40;99.90;;;;;;5051429;28;19947;-84
2022/12/15 08:56:05;;;;;;;;;;;-3.40;99.90;;;;;;5066763;28;19921;-84
2022/12/15 08:58:30;;;;;;;;;;;-3.30;99.90;;;;;;5052643;28;19925;-83
2022/12/15 09:01:03;;;;;;;;;;;-3.10;99.90;;;;;;5051705;28;19920;-84
2022/12/15 09:03:29;;;;;;;;;;;-2.60;99.90;;;;;;5071139;28;19921;-83
2022/12/15 09:05:56;;;;;;;;;;;-2.00;99.90;;;;;;5058569;28;19933;-83
2022/12/15 09:08:22;;;;;;;;;;;-1.40;99.90;;;;;;5051224;28;19921;-83
2022/12/15 09:10:48;;;;;;;;;;;-0.90;99.90;;;;;;5074978;28;19927;-83
2022/12/15 09:13:13;;;;;;;;;;;-0.60;99.90;;;;;;5054327;28;19973;-84
2022/12/15 09:15:42;;;;;;;;;;;-0.10;99.90;;;;;;5075488;28;20279;-83
2022/12/15 09:18:08;;;;;;;;;;;0.20;99.90;;;;;;5060043;28;19924;-84
2022/12/15 09:20:33;;;;;;;;;;;0.00;99.90;;;;;;5076286;28;19960;-84
2022/12/15 09:22:59;;;;;;;;;;;0.10;99.90;;;;;;5070334;28;19924;-84
2022/12/15 09:25:24;;;;;;;;;;;0.20;99.90;;;;;;5050570;28;19927;-84
2022/12/15 09:27:50;;;;;;;;;;;0.70;99.90;;;;;;5050282;28;20320;-83
2022/12/15 09:30:15;;;;;;;;;;;0.50;99.90;;;;;;5070618;28;19920;-84
2022/12/15 09:32:41;;;;;;;;;;;0.50;99.90;;;;;;5054230;28;19920;-83
2022/12/15 09:35:07;;;;;;;;;;;0.10;99.90;;;;;;5051588;28;19932;-83
2022/12/15 09:37:32;;;;;;;;;;;0.20;99.90;;;;;;5055941;28;19925;-84
2022/12/15 09:39:58;;;;;;;;;;;0.30;99.90;;;;;;5054987;28;20067;-83
2022/12/15 09:42:25;;;;;;;;;;;0.20;99.90;;;;;;5051812;28;19921;-86
2022/12/15 09:44:56;;;;;;;;;;;0.30;99.90;;;;;;5072245;28;19932;-85
2022/12/15 09:47:30;;;;;;;;;;;0.60;99.90;;;;;;5065721;28;19940;-87
2022/12/15 09:49:56;;;;;;;;;;;0.20;99.90;;;;;;5069803;28;19921;-86
2022/12/15 09:52:41;;;;;;;;;;;1.10;99.90;;;;;;5034473;28;20017;-85
2022/12/15 09:55:16;;;;;;;;;;;-0.50;99.90;;;;;;5054172;28;19928;-83
2022/12/15 09:57:52;;;;;;;;;;;-0.50;99.90;;;;;;5057885;28;19985;-83
2022/12/15 10:00:20;;;;;;;;;;;-0.70;99.90;;;;;;5056528;28;19920;-82
2022/12/15 10:02:49;;;;;;;;;;;-0.50;99.90;;;;;;5051583;28;19921;-82
2022/12/15 10:05:38;;;;;;;;;;;-0.40;99.90;;;;;;5048346;28;19921;-83
2022/12/15 10:08:04;;;;;;;;;;;-0.50;99.90;;;;;;5064598;28;19976;-83
2022/12/15 10:10:37;;;;;;;;;;;-0.70;99.90;;;;;;5046238;28;19955;-83
2022/12/15 10:13:09;;;;;;;;;;;-0.90;99.90;;;;;;5049859;28;19929;-82
2022/12/15 10:15:46;;;;;;;;;;;-1.10;99.90;;;;;;5049741;28;19929;-82
2022/12/15 10:18:19;;;;;;;;;;;-1.00;99.90;;;;;;5066638;28;19924;-89
2022/12/15 10:20:44;;;;;;;;;;;-1.10;99.90;;;;;;5067996;28;19920;-91
2022/12/15 10:23:14;;;;;;;;;;;-0.30;99.90;;;;;;5061475;28;19981;-92
2022/12/15 10:25:43;;;;;;;;;;;-1.10;99.90;;;;;;5072789;28;19921;-92
2022/12/15 10:28:14;;;;;;;;;;;0.40;99.90;;;;;;5073596;28;19927;-92
2022/12/15 10:30:58;;;;;;;;;;;-1.10;99.90;;;;;;5073009;28;19924;-93
2022/12/15 10:33:26;;;;;;;;;;;-1.00;99.90;;;;;;5066495;28;19935;-92
2022/12/15 10:35:52;;;;;;;;;;;-1.00;99.90;;;;;;5067501;28;19925;-91
2022/12/15 10:38:31;;;;;;;;;;;0.40;99.90;;;;;;5055934;28;19946;-92
2022/12/15 10:41:00;;;;;;;;;;;-0.90;99.90;;;;;;5052053;28;19920;-92
2022/12/15 10:43:26;;;;;;;;;;;-1.00;99.90;;;;;;5053375;28;19920;-93
2022/12/15 10:46:17;;;;;;;;;;;0.30;99.90;;;;;;5069519;28;19990;-93
2022/12/15 10:48:47;;;;;;;;;;;0.80;99.90;;;;;;5051074;28;19982;-93
2022/12/15 10:51:12;;;;;;;;;;;-2.10;99.90;;;;;;5051202;28;19942;-94
2022/12/15 10:53:47;;;;;;;;;;;-0.90;99.90;;;;;;5052864;28;20019;-92
2022/12/15 10:56:32;;;;;;;;;;;-0.80;99.90;;;;;;5055306;28;19921;-93
2022/12/15 10:58:59;;;;;;;;;;;-0.80;99.90;;;;;;5066760;28;20037;-92
2022/12/15 11:01:27;;;;;;;;;;;0.80;99.90;;;;;;5065458;28;19921;-92
2022/12/15 11:03:53;;;;;;;;;;;-0.60;99.90;;;;;;5072706;28;19920;-91
2022/12/15 11:06:40;;;;;;;;;;;-0.20;99.90;;;;;;5058163;28;20169;-92
2022/12/15 11:09:07;;;;;;;;;;;-0.50;99.90;;;;;;5065227;28;19921;-91
2022/12/15 11:14:25;;;;;;;;;;;-1.60;99.90;;;;;;5066343;28;19928;-92
2022/12/15 11:16:55;;;;;;;;;;;-0.30;99.90;;;;;;5054934;28;19972;-92
2022/12/15 11:19:37;;;;;;;;;;;-0.30;99.90;;;;;;5050445;28;19921;-91
2022/12/15 11:22:08;;;;;;;;;;;-0.20;99.90;;;;;;5064547;28;19921;-91
2022/12/15 11:24:37;;;;;;;;;;;-0.10;99.90;;;;;;5048467;28;20491;-92
2022/12/15 11:27:14;;;;;;;;;;;1.40;99.90;;;;;;5064675;28;19988;-92
2022/12/15 11:29:52;;;;;;;;;;;-0.10;99.90;;;;;;5054859;28;19924;-92
2022/12/15 11:32:21;;;;;;;;;;;-0.10;99.90;;;;;;5047099;28;20366;-91
2022/12/15 11:34:47;;;;;;;;;;;0.10;99.90;;;;;;5071005;28;20020;-93
2022/12/15 11:37:22;;;;;;;;;;;-0.10;99.90;;;;;;5040067;28;19963;-93
2022/12/15 11:40:03;;;;;;;;;;;-0.10;99.90;;;;;;5053070;28;19964;-92
2022/12/15 11:42:29;;;;;;;;;;;0.30;99.90;;;;;;5068130;28;19924;-93
2022/12/15 11:44:59;;;;;;;;;;;0.00;99.90;;;;;;5050714;28;20286;-93
2022/12/15 11:47:47;;;;;;;;;;;1.30;99.90;;;;;;5064159;28;19928;-93
2022/12/15 11:50:17;;;;;;;;;;;0.10;99.90;;;;;;5048773;28;19921;-94
2022/12/15 11:52:49;;;;;;;;;;;0.10;99.90;;;;;;5075496;28;19927;-93
2022/12/15 11:55:37;;;;;;;;;;;0.20;99.90;;;;;;5069782;28;19927;-93
2022/12/15 11:58:18;;;;;;;;;;;0.20;99.90;;;;;;5070686;28;19939;-92
2022/12/15 12:00:56;;;;;;;;;;;0.20;99.90;;;;;;5060777;28;19924;-92
2022/12/15 12:03:36;;;;;;;;;;;0.30;99.90;;;;;;5068349;28;19920;-89
2022/12/15 12:06:04;;;;;;;;;;;0.40;99.90;;;;;;5057223;28;19944;-88
2022/12/15 12:08:49;;;;;;;;;;;0.40;99.90;;;;;;5063661;28;19924;-89
2022/12/15 12:11:17;;;;;;;;;;;0.50;99.90;;;;;;5045584;28;19921;-90
2022/12/15 12:13:52;;;;;;;;;;;0.50;99.90;;;;;;5067907;28;19924;-89
2022/12/15 12:16:37;;;;;;;;;;;0.60;99.90;;;;;;5067817;28;19921;-93
2022/12/15 12:19:11;;;;;;;;;;;0.70;99.90;;;;;;5049843;28;19936;-95
2022/12/15 12:21:39;;;;;;;;;;;0.70;99.90;;;;;;5052893;28;20008;-92
2022/12/15 12:24:11;;;;;;;;;;;2.10;99.90;;;;;;5048137;28;19925;-92
2022/12/15 12:26:39;;;;;;;;;;;0.80;99.90;;;;;;5051584;28;19921;-91
2022/12/15 12:29:11;;;;;;;;;;;0.80;99.90;;;;;;5066451;28;19924;-92
2022/12/15 12:31:37;;;;;;;;;;;0.80;99.90;;;;;;5054152;28;19920;-92
2022/12/15 12:34:08;;;;;;;;;;;0.90;99.90;;;;;;5067360;28;19971;-92
2022/12/15 12:36:34;;;;;;;;;;;2.40;99.90;;;;;;5067345;28;19976;-92
2022/12/15 12:39:00;;;;;;;;;;;2.40;99.90;;;;;;5075144;28;19932;-92
2022/12/15 12:41:39;;;;;;;;;;;1.10;99.90;;;;;;5057158;28;19920;-92
2022/12/15 12:44:16;;;;;;;;;;;1.10;99.90;;;;;;5070130;28;20518;-92
2022/12/15 12:46:44;;;;;;;;;;;1.10;99.90;;;;;;5049773;28;19927;-92
2022/12/15 12:49:28;;;;;;;;;;;1.20;99.90;;;;;;5057645;28;19947;-92
2022/12/15 12:51:57;;;;;;;;;;;1.20;99.90;;;;;;5069178;28;20062;-92
2022/12/15 12:54:35;;;;;;;;;;;2.60;99.90;;;;;;5060255;28;19931;-92
2022/12/15 12:57:10;;;;;;;;;;;1.10;99.90;;;;;;5060825;28;19925;-92
2022/12/15 12:59:55;;;;;;;;;;;1.20;99.90;;;;;;5048561;28;20364;-94
2022/12/15 13:02:20;;;;;;;;;;;1.10;99.90;;;;;;5076572;28;19960;-93
2022/12/15 13:04:50;;;;;;;;;;;1.10;99.90;;;;;;5055728;28;19935;-93
2022/12/15 13:07:30;;;;;;;;;;;1.20;99.90;;;;;;5072151;28;19916;-93
2022/12/15 13:10:08;;;;;;;;;;;1.10;99.90;;;;;;5048807;28;19920;-92
2022/12/15 13:12:50;;;;;;;;;;;1.10;99.90;;;;;;5050022;28;19921;-93
2022/12/15 13:15:26;;;;;;;;;;;0.90;99.90;;;;;;5035708;28;19999;-92
2022/12/15 13:17:54;;;;;;;;;;;2.20;99.90;;;;;;5055904;28;19924;-92
2022/12/15 13:20:19;;;;;;;;;;;2.20;99.90;;;;;;5070703;28;19921;-92
2022/12/15 13:22:45;;;;;;;;;;;0.70;99.90;;;;;;5076870;28;19927;-92
2022/12/15 13:25:40;;;;;;;;;;;1.10;99.90;;;;;;5075087;28;19929;-91
2022/12/15 13:28:15;;;;;;;;;;;0.60;99.90;;;;;;5042284;28;19921;-92
2022/12/15 13:31:22;;;;;;;;;;;0.60;99.90;;;;;;5056161;28;19921;-92
2022/12/15 13:33:54;;;;;;;;;;;0.50;99.90;;;;;;5019306;28;19921;-92
2022/12/15 13:36:35;;;;;;;;;;;0.50;99.90;;;;;;5014159;28;19926;-91
2022/12/15 13:39:13;;;;;;;;;;;0.50;99.90;;;;;;5049915;28;19925;-92
2022/12/15 13:41:45;;;;;;;;;;;0.50;99.90;;;;;;5055127;28;19921;-92
2022/12/15 13:44:22;;;;;;;;;;;0.50;99.90;;;;;;5057785;28;19948;-92
2022/12/15 13:46:50;;;;;;;;;;;0.60;99.90;;;;;;5060211;28;19935;-92
2022/12/15 13:49:20;;;;;;;;;;;0.60;99.90;;;;;;5075121;28;20389;-92
2022/12/15 13:51:45;;;;;;;;;;;0.60;99.90;;;;;;5050891;28;19920;-93
2022/12/15 13:54:15;;;;;;;;;;;1.80;99.90;;;;;;5040706;28;19927;-92
2022/12/15 13:56:45;;;;;;;;;;;0.60;99.90;;;;;;5053471;28;19920;-92
2022/12/15 13:59:29;;;;;;;;;;;0.60;99.90;;;;;;5055626;28;19925;-89
2022/12/15 14:01:55;;;;;;;;;;;0.50;99.90;;;;;;5055160;28;19921;-89
2022/12/15 14:04:21;;;;;;;;;;;1.90;99.90;;;;;;5055608;28;19920;-91
2022/12/15 14:06:58;;;;;;;;;;;2.20;99.90;;;;;;5055641;28;19921;-91
2022/12/15 14:09:35;;;;;;;;;;;0.50;99.90;;;;;;5057241;28;20007;-91
2022/12/15 14:12:03;;;;;;;;;;;0.50;99.90;;;;;;5057552;28;19920;-91
2022/12/15 14:14:31;;;;;;;;;;;0.50;99.90;;;;;;5075439;28;19978;-91
2022/12/15 14:16:58;;;;;;;;;;;1.30;99.90;;;;;;5053833;28;19959;-91
2022/12/15 14:19:24;;;;;;;;;;;0.40;99.90;;;;;;5070207;28;19928;-90
2022/12/15 14:21:50;;;;;;;;;;;1.00;99.90;;;;;;5056037;28;19925;-91
2022/12/15 14:24:24;;;;;;;;;;;2.10;99.90;;;;;;5052474;28;19960;-90
2022/12/15 14:26:50;;;;;;;;;;;0.30;99.90;;;;;;5073687;28;19925;-91
2022/12/15 14:29:16;;;;;;;;;;;0.60;99.90;;;;;;5052689;28;19980;-90
2022/12/15 14:31:43;;;;;;;;;;;1.20;99.90;;;;;;5071300;28;19921;-90
2022/12/15 14:34:32;;;;;;;;;;;0.40;99.90;;;;;;5058280;28;20328;-91
2022/12/15 14:37:01;;;;;;;;;;;0.30;99.90;;;;;;5053438;28;19929;-92
2022/12/15 14:39:26;;;;;;;;;;;0.40;99.90;;;;;;5071218;28;19924;-92
2022/12/15 14:41:52;;;;;;;;;;;0.20;99.90;;;;;;5057112;28;19935;-92
2022/12/15 14:44:24;;;;;;;;;;;0.20;99.90;;;;;;5058938;28;19944;-93
2022/12/15 14:46:49;;;;;;;;;;;0.20;99.90;;;;;;5057491;28;19984;-92
2022/12/15 14:49:20;;;;;;;;;;;0.20;99.90;;;;;;5062308;28;20382;-91
2022/12/15 14:51:48;;;;;;;;;;;0.10;99.90;;;;;;5058420;28;19990;-94
2022/12/15 14:54:28;;;;;;;;;;;0.10;99.90;;;;;;5059339;28;19935;-93
2022/12/15 14:57:20;;;;;;;;;;;0.10;99.90;;;;;;5055046;28;19921;-93
2022/12/15 14:59:47;;;;;;;;;;;0.00;99.90;;;;;;5053039;28;19932;-93
2022/12/15 15:02:21;;;;;;;;;;;0.00;99.90;;;;;;5039751;28;19921;-87
2022/12/15 15:05:04;;;;;;;;;;;0.00;99.90;;;;;;5063606;28;19920;-94
2022/12/15 15:07:34;;;;;;;;;;;-0.10;99.90;;;;;;5070523;28;19921;-95
2022/12/15 15:10:00;;;;;;;;;;;-0.10;99.90;;;;;;5063564;28;20320;-87
2022/12/15 15:12:39;;;;;;;;;;;0.90;99.90;;;;;;5067282;28;19979;-90
2022/12/15 15:15:05;;;;;;;;;;;-0.20;99.90;;;;;;5050567;28;19921;-90
2022/12/15 15:17:46;;;;;;;;;;;-0.30;99.90;;;;;;5066791;28;19928;-91
2022/12/15 15:20:26;;;;;;;;;;;-0.30;99.90;;;;;;5065665;28;19924;-91
2022/12/15 15:23:07;;;;;;;;;;;-0.30;99.90;;;;;;5067369;28;20401;-90
2022/12/15 15:25:33;;;;;;;;;;;-0.40;99.90;;;;;;5072253;28;19942;-90
2022/12/15 15:28:10;;;;;;;;;;;-0.40;99.90;;;;;;5057537;28;19999;-88
2022/12/15 15:30:47;;;;;;;;;;;-0.40;99.90;;;;;;5055810;28;19928;-90
2022/12/15 15:33:13;;;;;;;;;;;-0.50;99.90;;;;;;5065607;28;19976;-91
2022/12/15 15:35:42;;;;;;;;;;;0.60;99.90;;;;;;5047781;28;19963;-93
2022/12/15 15:38:16;;;;;;;;;;;-0.60;99.90;;;;;;5046554;28;19932;-94
2022/12/15 15:40:42;;;;;;;;;;;-0.60;99.90;;;;;;5065731;28;20395;-93
2022/12/15 15:43:11;;;;;;;;;;;0.20;99.90;;;;;;5054402;28;19984;-91
2022/12/15 15:45:38;;;;;;;;;;;1.00;99.90;;;;;;5064635;28;20000;-92
2022/12/15 15:48:04;;;;;;;;;;;-0.70;99.90;;;;;;5066409;28;19920;-91
2022/12/15 15:50:31;;;;;;;;;;;-0.70;99.90;;;;;;5049405;28;19931;-94
2022/12/15 15:52:57;;;;;;;;;;;0.60;99.90;;;;;;5071900;28;19940;-92
2022/12/15 15:55:28;;;;;;;;;;;-0.80;99.90;;;;;;5036159;28;20269;-91
2022/12/15 15:57:53;;;;;;;;;;;-0.80;99.90;;;;;;5056390;28;19991;-92
2022/12/15 16:00:20;;;;;;;;;;;-0.90;99.90;;;;;;5078736;28;19924;-94
2022/12/15 16:02:46;;;;;;;;;;;-1.00;99.90;;;;;;5049852;28;19920;-88
2022/12/15 16:05:12;;;;;;;;;;;-0.40;99.90;;;;;;5051846;28;19927;-93
2022/12/15 16:07:38;;;;;;;;;;;-1.00;99.90;;;;;;5033222;28;19959;-93
2022/12/15 16:10:10;;;;;;;;;;;0.00;99.90;;;;;;5066742;28;19920;-94
2022/12/15 16:12:41;;;;;;;;;;;-1.00;99.90;;;;;;5075483;28;19928;-89
2022/12/15 16:15:14;;;;;;;;;;;0.00;99.90;;;;;;5071461;28;19972;-92
2022/12/15 16:17:40;;;;;;;;;;;-1.00;99.90;;;;;;5065676;28;19928;-91
2022/12/15 16:20:07;;;;;;;;;;;-1.00;99.90;;;;;;5057182;28;19999;-91
2022/12/15 16:22:33;;;;;;;;;;;-1.10;99.90;;;;;;5067986;28;19931;-90
2022/12/15 16:24:58;;;;;;;;;;;-1.10;99.90;;;;;;5071157;28;19928;-88
2022/12/15 16:27:24;;;;;;;;;;;0.50;99.90;;;;;;5055850;28;19976;-86
2022/12/15 16:29:50;;;;;;;;;;;-1.20;99.90;;;;;;5052537;28;20023;-89
2022/12/15 16:32:15;;;;;;;;;;;-0.90;99.90;;;;;;5057432;28;19924;-92
2022/12/15 16:34:41;;;;;;;;;;;-1.20;99.90;;;;;;5030838;28;19936;-91
2022/12/15 16:37:19;;;;;;;;;;;-1.20;99.90;;;;;;5040332;28;19935;-90
2022/12/15 16:39:45;;;;;;;;;;;-1.20;99.90;;;;;;5090545;28;20007;-91
2022/12/15 16:42:10;;;;;;;;;;;0.30;99.90;;;;;;5069523;28;19920;-90
2022/12/15 16:44:36;;;;;;;;;;;0.50;99.90;;;;;;5069271;28;19966;-94
2022/12/15 16:47:01;;;;;;;;;;;0.50;99.90;;;;;;5053732;28;19929;-93
2022/12/15 16:49:28;;;;;;;;;;;-1.30;99.90;;;;;;5067496;28;20445;-93
2022/12/15 16:51:54;;;;;;;;;;;-0.10;99.90;;;;;;5055373;28;19976;-93
2022/12/15 16:54:24;;;;;;;;;;;-1.40;99.90;;;;;;5067197;28;19943;-93
2022/12/15 16:56:51;;;;;;;;;;;-0.10;99.90;;;;;;5054523;28;19924;-93
2022/12/15 16:59:18;;;;;;;;;;;-0.20;99.90;;;;;;5034075;28;19935;-93
2022/12/15 17:01:44;;;;;;;;;;;-1.60;99.90;;;;;;5055008;28;20003;-92